sensor_id;sensor_type;location;lat;lon;timestamp;P1;durP1;ratioP1;P2;durP2;ratioP2
1523;SDS011;755;53.658;10.118;2022-11-20T00:09:44;7.72;;;3.70;;
1523;SDS011;755;53.658;10.118;2022-11-20T00:19:46;10.43;;;4.10;;
1523;SDS011;755;53.658;10.118;2022-11-20T00:29:49;8.13;;;3.33;;
1523;SDS011;755;53.658;10.118;2022-11-20T00:39:51;7.55;;;3.33;;
1523;SDS011;755;53.658;10.118;2022-11-20T00:49:54;5.78;;;3.03;;
1523;SDS011;755;53.658;10.118;2022-11-20T00:59:56;9.15;;;3.33;;
1523;SDS011;755;53.658;10.118;2022-11-20T01:10:00;6.10;;;2.95;;
1523;SDS011;755;53.658;10.118;2022-11-20T01:20:02;8.68;;;3.42;;
1523;SDS011;755;53.658;10.118;2022-11-20T01:30:06;7.28;;;3.45;;
1523;SDS011;755;53.658;10.118;2022-11-20T01:40:09;7.68;;;3.47;;
1523;SDS011;755;53.658;10.118;2022-11-20T01:50:15;7.50;;;3.67;;
1523;SDS011;755;53.658;10.118;2022-11-20T02:00:20;5.95;;;3.25;;
1523;SDS011;755;53.658;10.118;2022-11-20T02:10:24;5.43;;;3.05;;
1523;SDS011;755;53.658;10.118;2022-11-20T02:20:28;12.10;;;4.20;;
1523;SDS011;755;53.658;10.118;2022-11-20T02:30:32;9.25;;;4.40;;
1523;SDS011;755;53.658;10.118;2022-11-20T02:40:35;11.27;;;3.92;;
1523;SDS011;755;53.658;10.118;2022-11-20T02:50:42;8.70;;;4.07;;
1523;SDS011;755;53.658;10.118;2022-11-20T03:00:45;7.40;;;3.63;;
1523;SDS011;755;53.658;10.118;2022-11-20T03:10:48;5.57;;;2.90;;
1523;SDS011;755;53.658;10.118;2022-11-20T03:20:56;7.68;;;3.85;;
1523;SDS011;755;53.658;10.118;2022-11-20T03:31:10;6.35;;;3.25;;
1523;SDS011;755;53.658;10.118;2022-11-20T03:41:13;8.65;;;4.07;;
1523;SDS011;755;53.658;10.118;2022-11-20T03:51:18;7.07;;;3.45;;
1523;SDS011;755;53.658;10.118;2022-11-20T04:01:22;7.50;;;4.00;;
1523;SDS011;755;53.658;10.118;2022-11-20T04:11:28;7.97;;;3.92;;
1523;SDS011;755;53.658;10.118;2022-11-20T04:21:31;5.57;;;3.15;;
1523;SDS011;755;53.658;10.118;2022-11-20T04:31:35;6.05;;;3.45;;
1523;SDS011;755;53.658;10.118;2022-11-20T04:41:38;7.00;;;3.38;;
1523;SDS011;755;53.658;10.118;2022-11-20T04:51:41;5.90;;;3.10;;
1523;SDS011;755;53.658;10.118;2022-11-20T05:01:44;7.95;;;3.45;;
1523;SDS011;755;53.658;10.118;2022-11-20T05:11:47;10.07;;;3.72;;
1523;SDS011;755;53.658;10.118;2022-11-20T05:21:52;6.90;;;3.43;;
1523;SDS011;755;53.658;10.118;2022-11-20T05:31:55;9.30;;;4.00;;
1523;SDS011;755;53.658;10.118;2022-11-20T05:41:58;6.50;;;3.22;;
1523;SDS011;755;53.658;10.118;2022-11-20T05:52:19;8.27;;;3.45;;
1523;SDS011;755;53.658;10.118;2022-11-20T06:02:22;7.95;;;3.95;;
1523;SDS011;755;53.658;10.118;2022-11-20T06:12:25;10.73;;;3.28;;
1523;SDS011;755;53.658;10.118;2022-11-20T06:22:28;6.22;;;3.63;;
1523;SDS011;755;53.658;10.118;2022-11-20T06:32:32;8.23;;;3.28;;
1523;SDS011;755;53.658;10.118;2022-11-20T06:42:38;5.72;;;3.22;;
1523;SDS011;755;53.658;10.118;2022-11-20T06:52:42;6.03;;;3.35;;
1523;SDS011;755;53.658;10.118;2022-11-20T07:02:44;5.75;;;3.33;;
1523;SDS011;755;53.658;10.118;2022-11-20T07:12:50;14.88;;;4.53;;
1523;SDS011;755;53.658;10.118;2022-11-20T07:22:53;10.80;;;5.40;;
1523;SDS011;755;53.658;10.118;2022-11-20T07:32:57;8.55;;;4.57;;
1523;SDS011;755;53.658;10.118;2022-11-20T07:43:00;9.05;;;5.18;;
1523;SDS011;755;53.658;10.118;2022-11-20T07:53:04;10.88;;;5.20;;
1523;SDS011;755;53.658;10.118;2022-11-20T08:03:07;12.00;;;4.88;;
1523;SDS011;755;53.658;10.118;2022-11-20T08:13:11;14.98;;;5.32;;
1523;SDS011;755;53.658;10.118;2022-11-20T08:23:33;6.70;;;3.92;;
1523;SDS011;755;53.658;10.118;2022-11-20T08:33:38;11.13;;;5.70;;
1523;SDS011;755;53.658;10.118;2022-11-20T08:43:41;12.05;;;6.18;;
1523;SDS011;755;53.658;10.118;2022-11-20T08:53:45;12.02;;;4.53;;
1523;SDS011;755;53.658;10.118;2022-11-20T09:13:53;8.65;;;5.13;;
1523;SDS011;755;53.658;10.118;2022-11-20T09:23:55;11.88;;;6.03;;
1523;SDS011;755;53.658;10.118;2022-11-20T09:33:59;13.05;;;6.10;;
1523;SDS011;755;53.658;10.118;2022-11-20T09:44:02;10.45;;;5.10;;
1523;SDS011;755;53.658;10.118;2022-11-20T09:54:17;9.68;;;6.18;;
1523;SDS011;755;53.658;10.118;2022-11-20T10:04:21;8.35;;;4.75;;
1523;SDS011;755;53.658;10.118;2022-11-20T10:14:29;8.57;;;4.15;;
1523;SDS011;755;53.658;10.118;2022-11-20T10:24:46;8.00;;;4.35;;
1523;SDS011;755;53.658;10.118;2022-11-20T10:35:00;8.45;;;5.20;;
1523;SDS011;755;53.658;10.118;2022-11-20T10:45:09;9.77;;;4.70;;
1523;SDS011;755;53.658;10.118;2022-11-20T10:55:38;11.63;;;7.38;;
1523;SDS011;755;53.658;10.118;2022-11-20T11:05:44;7.88;;;4.55;;
1523;SDS011;755;53.658;10.118;2022-11-20T11:15:54;6.53;;;3.85;;
1523;SDS011;755;53.658;10.118;2022-11-20T11:25:58;10.13;;;4.88;;
1523;SDS011;755;53.658;10.118;2022-11-20T11:36:05;7.55;;;3.50;;
1523;SDS011;755;53.658;10.118;2022-11-20T11:46:25;6.00;;;3.42;;
1523;SDS011;755;53.658;10.118;2022-11-20T11:56:32;5.80;;;3.08;;
1523;SDS011;755;53.658;10.118;2022-11-20T12:06:35;5.03;;;2.67;;
1523;SDS011;755;53.658;10.118;2022-11-20T12:16:42;3.57;;;2.80;;
1523;SDS011;755;53.658;10.118;2022-11-20T12:26:49;3.55;;;2.60;;
1523;SDS011;755;53.658;10.118;2022-11-20T12:37:03;5.33;;;2.27;;
1523;SDS011;755;53.658;10.118;2022-11-20T12:47:14;4.20;;;2.70;;
1523;SDS011;755;53.658;10.118;2022-11-20T12:57:29;6.82;;;2.60;;
1523;SDS011;755;53.658;10.118;2022-11-20T13:07:39;4.07;;;2.67;;
1523;SDS011;755;53.658;10.118;2022-11-20T13:17:45;4.95;;;2.50;;
1523;SDS011;755;53.658;10.118;2022-11-20T13:27:53;3.72;;;2.28;;
1523;SDS011;755;53.658;10.118;2022-11-20T13:38:05;5.07;;;2.50;;
1523;SDS011;755;53.658;10.118;2022-11-20T13:48:18;6.10;;;2.10;;
1523;SDS011;755;53.658;10.118;2022-11-20T13:58:26;4.60;;;2.47;;
1523;SDS011;755;53.658;10.118;2022-11-20T14:08:39;6.13;;;2.53;;
1523;SDS011;755;53.658;10.118;2022-11-20T14:18:45;4.03;;;2.73;;
1523;SDS011;755;53.658;10.118;2022-11-20T14:28:49;15.38;;;3.22;;
1523;SDS011;755;53.658;10.118;2022-11-20T15:11:31;6.22;;;2.47;;
1523;SDS011;755;53.658;10.118;2022-11-20T15:21:50;11.80;;;5.30;;
1523;SDS011;755;53.658;10.118;2022-11-20T15:31:58;6.57;;;3.58;;
1523;SDS011;755;53.658;10.118;2022-11-20T15:42:01;8.82;;;4.00;;
1523;SDS011;755;53.658;10.118;2022-11-20T15:52:08;5.55;;;3.78;;
1523;SDS011;755;53.658;10.118;2022-11-20T16:02:11;9.13;;;4.90;;
1523;SDS011;755;53.658;10.118;2022-11-20T16:12:16;12.30;;;6.07;;
1523;SDS011;755;53.658;10.118;2022-11-20T16:22:48;7.43;;;4.88;;
1523;SDS011;755;53.658;10.118;2022-11-20T16:32:55;16.48;;;5.13;;
1523;SDS011;755;53.658;10.118;2022-11-20T16:43:07;13.18;;;6.20;;
1523;SDS011;755;53.658;10.118;2022-11-20T16:53:15;11.85;;;6.25;;
1523;SDS011;755;53.658;10.118;2022-11-20T17:03:22;11.68;;;6.68;;
1523;SDS011;755;53.658;10.118;2022-11-20T17:13:32;12.95;;;6.68;;
1523;SDS011;755;53.658;10.118;2022-11-20T17:23:36;27.98;;;13.98;;
1523;SDS011;755;53.658;10.118;2022-11-20T17:33:51;16.98;;;8.45;;
1523;SDS011;755;53.658;10.118;2022-11-20T17:43:58;20.08;;;10.30;;
1523;SDS011;755;53.658;10.118;2022-11-20T17:54:04;19.77;;;9.23;;
1523;SDS011;755;53.658;10.118;2022-11-20T18:04:14;19.60;;;8.63;;
1523;SDS011;755;53.658;10.118;2022-11-20T18:14:20;17.60;;;8.38;;
1523;SDS011;755;53.658;10.118;2022-11-20T18:24:36;16.80;;;8.82;;
1523;SDS011;755;53.658;10.118;2022-11-20T18:34:41;30.25;;;13.07;;
1523;SDS011;755;53.658;10.118;2022-11-20T18:44:50;28.40;;;12.63;;
1523;SDS011;755;53.658;10.118;2022-11-20T18:54:58;49.85;;;19.33;;
1523;SDS011;755;53.658;10.118;2022-11-20T19:05:01;40.28;;;15.32;;
1523;SDS011;755;53.658;10.118;2022-11-20T19:15:07;34.55;;;15.25;;
1523;SDS011;755;53.658;10.118;2022-11-20T19:25:11;50.70;;;23.30;;
1523;SDS011;755;53.658;10.118;2022-11-20T19:35:18;49.80;;;21.27;;
1523;SDS011;755;53.658;10.118;2022-11-20T19:45:26;36.35;;;16.60;;
1523;SDS011;755;53.658;10.118;2022-11-20T19:55:31;37.65;;;15.10;;
1523;SDS011;755;53.658;10.118;2022-11-20T20:05:34;68.78;;;29.27;;
1523;SDS011;755;53.658;10.118;2022-11-20T20:15:39;48.13;;;20.63;;
1523;SDS011;755;53.658;10.118;2022-11-20T20:25:46;49.50;;;19.40;;
1523;SDS011;755;53.658;10.118;2022-11-20T20:35:50;46.88;;;20.33;;
1523;SDS011;755;53.658;10.118;2022-11-20T20:45:53;49.65;;;22.48;;
1523;SDS011;755;53.658;10.118;2022-11-20T20:55:59;42.47;;;19.85;;
1523;SDS011;755;53.658;10.118;2022-11-20T21:06:02;61.90;;;24.63;;
1523;SDS011;755;53.658;10.118;2022-11-20T21:16:09;49.13;;;21.27;;
1523;SDS011;755;53.658;10.118;2022-11-20T21:26:15;53.05;;;20.58;;
1523;SDS011;755;53.658;10.118;2022-11-20T21:36:24;46.15;;;21.58;;
1523;SDS011;755;53.658;10.118;2022-11-20T21:46:31;44.03;;;20.33;;
1523;SDS011;755;53.658;10.118;2022-11-20T21:56:44;48.42;;;20.95;;
1523;SDS011;755;53.658;10.118;2022-11-20T22:06:54;43.28;;;21.27;;
1523;SDS011;755;53.658;10.118;2022-11-20T22:17:11;65.15;;;26.42;;
1523;SDS011;755;53.658;10.118;2022-11-20T22:27:18;48.42;;;22.02;;
1523;SDS011;755;53.658;10.118;2022-11-20T22:37:29;43.95;;;21.10;;
1523;SDS011;755;53.658;10.118;2022-11-20T22:47:41;56.25;;;22.05;;
1523;SDS011;755;53.658;10.118;2022-11-20T22:57:54;44.35;;;20.58;;
1523;SDS011;755;53.658;10.118;2022-11-20T23:08:00;47.33;;;19.92;;
1523;SDS011;755;53.658;10.118;2022-11-20T23:18:09;48.28;;;20.48;;
1523;SDS011;755;53.658;10.118;2022-11-20T23:28:18;41.15;;;18.75;;
1523;SDS011;755;53.658;10.118;2022-11-20T23:38:26;44.83;;;17.88;;
1523;SDS011;755;53.658;10.118;2022-11-20T23:48:31;40.93;;;18.53;;
1523;SDS011;755;53.658;10.118;2022-11-20T23:58:42;37.75;;;17.92;;
